sensor_id;sensor_type;location;lat;lon;timestamp;pressure;altitude;pressure_sealevel;temperature;humidity
76285;BME280;71676;50.998;7.098;2024-02-04T00:00:14;101820.63;;;8.86;73.29
76285;BME280;71676;50.998;7.098;2024-02-04T00:02:43;101816.41;;;8.88;73.36
76285;BME280;71676;50.998;7.098;2024-02-04T00:05:10;101805.56;;;8.70;73.81
76285;BME280;71676;50.998;7.098;2024-02-04T00:07:37;101805.66;;;8.73;74.14
76285;BME280;71676;50.998;7.098;2024-02-04T00:10:03;101763.41;;;8.38;73.59
76285;BME280;71676;50.998;7.098;2024-02-04T00:12:30;101823.66;;;8.73;73.43
76285;BME280;71676;50.998;7.098;2024-02-04T00:14:57;101815.84;;;8.70;73.71
76285;BME280;71676;50.998;7.098;2024-02-04T00:17:24;101809.31;;;8.81;72.66
76285;BME280;71676;50.998;7.098;2024-02-04T00:19:56;101811.13;;;8.83;72.73
76285;BME280;71676;50.998;7.098;2024-02-04T00:22:23;101808.66;;;8.86;72.35
76285;BME280;71676;50.998;7.098;2024-02-04T00:24:49;101810.13;;;8.78;73.05
76285;BME280;71676;50.998;7.098;2024-02-04T00:27:16;101801.09;;;8.64;73.74
76285;BME280;71676;50.998;7.098;2024-02-04T00:29:43;101802.28;;;8.74;73.91
76285;BME280;71676;50.998;7.098;2024-02-04T00:32:09;101794.09;;;8.87;72.89
76285;BME280;71676;50.998;7.098;2024-02-04T00:34:36;101798.94;;;8.78;73.19
76285;BME280;71676;50.998;7.098;2024-02-04T00:37:04;101805.56;;;8.70;74.08
76285;BME280;71676;50.998;7.098;2024-02-04T00:39:30;101802.88;;;8.67;74.08
76285;BME280;71676;50.998;7.098;2024-02-04T00:41:57;101806.38;;;8.69;74.27
76285;BME280;71676;50.998;7.098;2024-02-04T00:44:24;101802.19;;;8.71;74.75
76285;BME280;71676;50.998;7.098;2024-02-04T00:46:50;101801.16;;;8.66;74.55
76285;BME280;71676;50.998;7.098;2024-02-04T00:49:17;101803.81;;;8.69;74.38
76285;BME280;71676;50.998;7.098;2024-02-04T00:51:43;101799.34;;;8.63;74.67
76285;BME280;71676;50.998;7.098;2024-02-04T00:54:11;101789.06;;;8.63;74.72
76285;BME280;71676;50.998;7.098;2024-02-04T00:56:38;101790.88;;;8.66;74.82
76285;BME280;71676;50.998;7.098;2024-02-04T00:59:05;101797.31;;;8.80;73.92
76285;BME280;71676;50.998;7.098;2024-02-04T01:01:31;101794.56;;;8.74;74.51
76285;BME280;71676;50.998;7.098;2024-02-04T01:03:58;101781.75;;;8.75;74.28
76285;BME280;71676;50.998;7.098;2024-02-04T01:06:24;101793.44;;;8.66;74.34
76285;BME280;71676;50.998;7.098;2024-02-04T01:08:51;101791.16;;;8.48;75.03
76285;BME280;71676;50.998;7.098;2024-02-04T01:11:19;101768.09;;;8.23;75.87
76285;BME280;71676;50.998;7.098;2024-02-04T01:13:46;101797.34;;;8.53;75.09
76285;BME280;71676;50.998;7.098;2024-02-04T01:16:13;101798.03;;;8.49;75.36
76285;BME280;71676;50.998;7.098;2024-02-04T01:18:39;101802.84;;;8.39;75.97
76285;BME280;71676;50.998;7.098;2024-02-04T01:21:06;101795.09;;;8.37;75.76
76285;BME280;71676;50.998;7.098;2024-02-04T01:23:33;101798.50;;;8.38;75.66
76285;BME280;71676;50.998;7.098;2024-02-04T01:26:00;101801.91;;;8.37;76.38
76285;BME280;71676;50.998;7.098;2024-02-04T01:28:28;101797.81;;;8.42;76.09
76285;BME280;71676;50.998;7.098;2024-02-04T01:30:55;101797.34;;;8.53;75.37
76285;BME280;71676;50.998;7.098;2024-02-04T01:33:21;101787.53;;;8.42;75.91
76285;BME280;71676;50.998;7.098;2024-02-04T01:35:48;101800.94;;;8.58;74.97
76285;BME280;71676;50.998;7.098;2024-02-04T01:38:14;101798.31;;;8.57;75.26
76285;BME280;71676;50.998;7.098;2024-02-04T01:40:41;101799.84;;;8.52;75.18
76285;BME280;71676;50.998;7.098;2024-02-04T01:43:08;101790.25;;;8.46;75.48
76285;BME280;71676;50.998;7.098;2024-02-04T01:45:36;101797.00;;;8.69;74.49
76285;BME280;71676;50.998;7.098;2024-02-04T01:48:03;101803.63;;;8.63;74.67
76285;BME280;71676;50.998;7.098;2024-02-04T01:50:30;101791.75;;;8.66;74.27
76285;BME280;71676;50.998;7.098;2024-02-04T01:52:57;101798.34;;;8.58;74.90
76285;BME280;71676;50.998;7.098;2024-02-04T01:55:24;101795.19;;;8.40;76.03
76285;BME280;71676;50.998;7.098;2024-02-04T01:57:51;101784.66;;;8.33;76.31
76285;BME280;71676;50.998;7.098;2024-02-04T02:00:18;101780.78;;;8.45;75.70
76285;BME280;71676;50.998;7.098;2024-02-04T02:02:47;101766.81;;;8.37;75.95
76285;BME280;71676;50.998;7.098;2024-02-04T02:05:14;101783.47;;;8.48;75.48
76285;BME280;71676;50.998;7.098;2024-02-04T02:07:41;101778.59;;;8.57;75.19
76285;BME280;71676;50.998;7.098;2024-02-04T02:10:11;101764.13;;;8.61;74.68
76285;BME280;71676;50.998;7.098;2024-02-04T02:12:41;101776.94;;;8.59;75.17
76285;BME280;71676;50.998;7.098;2024-02-04T02:15:13;101779.34;;;8.53;75.30
76285;BME280;71676;50.998;7.098;2024-02-04T02:17:48;101774.94;;;8.51;75.96
76285;BME280;71676;50.998;7.098;2024-02-04T02:20:20;101773.25;;;8.51;75.81
76285;BME280;71676;50.998;7.098;2024-02-04T02:22:54;101743.00;;;8.43;75.55
76285;BME280;71676;50.998;7.098;2024-02-04T02:25:27;101769.75;;;8.49;75.69
76285;BME280;71676;50.998;7.098;2024-02-04T02:27:54;101771.31;;;8.44;76.11
76285;BME280;71676;50.998;7.098;2024-02-04T02:30:21;101769.66;;;8.46;75.84
76285;BME280;71676;50.998;7.098;2024-02-04T02:32:48;101762.59;;;8.39;76.22
76285;BME280;71676;50.998;7.098;2024-02-04T02:35:16;101758.28;;;8.38;76.74
76285;BME280;71676;50.998;7.098;2024-02-04T02:37:46;101761.25;;;8.50;75.98
76285;BME280;71676;50.998;7.098;2024-02-04T02:40:22;101757.97;;;8.56;75.48
76285;BME280;71676;50.998;7.098;2024-02-04T02:42:52;101765.81;;;8.60;75.71
76285;BME280;71676;50.998;7.098;2024-02-04T02:45:21;101758.06;;;8.59;75.94
76285;BME280;71676;50.998;7.098;2024-02-04T02:47:50;101760.91;;;8.66;75.37
76285;BME280;71676;50.998;7.098;2024-02-04T02:50:17;101764.41;;;8.70;75.34
76285;BME280;71676;50.998;7.098;2024-02-04T02:52:44;101749.97;;;8.73;74.87
76285;BME280;71676;50.998;7.098;2024-02-04T02:55:11;101758.94;;;8.59;75.98
76285;BME280;71676;50.998;7.098;2024-02-04T02:57:38;101754.53;;;8.55;76.14
76285;BME280;71676;50.998;7.098;2024-02-04T03:00:07;101752.47;;;8.72;75.14
76285;BME280;71676;50.998;7.098;2024-02-04T03:02:34;101760.91;;;8.66;75.21
76285;BME280;71676;50.998;7.098;2024-02-04T03:05:01;101759.09;;;8.64;75.49
76285;BME280;71676;50.998;7.098;2024-02-04T03:07:28;101720.59;;;8.39;75.83
76285;BME280;71676;50.998;7.098;2024-02-04T03:09:54;101760.78;;;8.63;75.73
76285;BME280;71676;50.998;7.098;2024-02-04T03:12:21;101753.75;;;8.58;75.85
76285;BME280;71676;50.998;7.098;2024-02-04T03:14:47;101754.81;;;8.64;75.85
76285;BME280;71676;50.998;7.098;2024-02-04T03:17:15;101746.22;;;8.64;75.83
76285;BME280;71676;50.998;7.098;2024-02-04T03:19:46;101741.19;;;8.67;75.46
76285;BME280;71676;50.998;7.098;2024-02-04T03:22:13;101743.13;;;8.74;75.31
76285;BME280;71676;50.998;7.098;2024-02-04T03:24:39;101750.75;;;8.71;75.54
76285;BME280;71676;50.998;7.098;2024-02-04T03:27:06;101751.50;;;8.68;76.09
76285;BME280;71676;50.998;7.098;2024-02-04T03:29:33;101748.25;;;8.74;75.54
76285;BME280;71676;50.998;7.098;2024-02-04T03:32:00;101748.59;;;8.56;75.88
76285;BME280;71676;50.998;7.098;2024-02-04T03:34:28;101751.19;;;8.58;76.22
76285;BME280;71676;50.998;7.098;2024-02-04T03:36:54;101747.66;;;8.54;76.55
76285;BME280;71676;50.998;7.098;2024-02-04T03:39:21;101732.41;;;8.60;76.33
76285;BME280;71676;50.998;7.098;2024-02-04T03:41:48;101741.94;;;8.63;76.17
76285;BME280;71676;50.998;7.098;2024-02-04T03:44:14;101745.25;;;8.60;76.50
76285;BME280;71676;50.998;7.098;2024-02-04T03:46:41;101740.41;;;8.69;75.92
76285;BME280;71676;50.998;7.098;2024-02-04T03:49:08;101740.25;;;8.65;76.09
76285;BME280;71676;50.998;7.098;2024-02-04T03:51:36;101739.53;;;8.69;75.92
76285;BME280;71676;50.998;7.098;2024-02-04T03:54:02;101732.75;;;8.71;75.91
76285;BME280;71676;50.998;7.098;2024-02-04T03:56:29;101740.72;;;8.80;75.41
76285;BME280;71676;50.998;7.098;2024-02-04T03:58:56;101730.66;;;8.87;74.73
76285;BME280;71676;50.998;7.098;2024-02-04T04:01:23;101733.00;;;8.80;75.54
76285;BME280;71676;50.998;7.098;2024-02-04T04:03:49;101727.69;;;8.74;75.52
76285;BME280;71676;50.998;7.098;2024-02-04T04:06:16;101738.78;;;8.73;75.89
76285;BME280;71676;50.998;7.098;2024-02-04T04:08:44;101729.25;;;8.69;75.93
76285;BME280;71676;50.998;7.098;2024-02-04T04:11:11;101732.88;;;8.75;75.40
76285;BME280;71676;50.998;7.098;2024-02-04T04:13:38;101715.13;;;8.55;75.67
76285;BME280;71676;50.998;7.098;2024-02-04T04:16:05;101740.63;;;8.77;75.52
76285;BME280;71676;50.998;7.098;2024-02-04T04:18:32;101740.16;;;8.62;75.87
76285;BME280;71676;50.998;7.098;2024-02-04T04:20:59;101746.16;;;8.61;76.16
76285;BME280;71676;50.998;7.098;2024-02-04T04:23:25;101744.63;;;8.67;76.02
76285;BME280;71676;50.998;7.098;2024-02-04T04:25:53;101754.16;;;8.71;75.85
76285;BME280;71676;50.998;7.098;2024-02-04T04:28:20;101752.81;;;8.82;75.18
76285;BME280;71676;50.998;7.098;2024-02-04T04:30:47;101746.78;;;8.82;75.43
76285;BME280;71676;50.998;7.098;2024-02-04T04:33:13;101743.13;;;8.74;75.80
76285;BME280;71676;50.998;7.098;2024-02-04T04:35:40;101746.75;;;8.80;75.34
76285;BME280;71676;50.998;7.098;2024-02-04T04:38:06;101739.03;;;8.80;75.12
76285;BME280;71676;50.998;7.098;2024-02-04T04:40:33;101737.31;;;8.81;75.19
76285;BME280;71676;50.998;7.098;2024-02-04T04:43:01;101747.75;;;8.85;75.11
76285;BME280;71676;50.998;7.098;2024-02-04T04:45:27;101762.84;;;8.75;75.70
76285;BME280;71676;50.998;7.098;2024-02-04T04:47:54;101767.88;;;8.70;75.82
76285;BME280;71676;50.998;7.098;2024-02-04T04:50:21;101778.53;;;8.82;75.11
76285;BME280;71676;50.998;7.098;2024-02-04T04:52:47;101785.25;;;8.77;75.40
76285;BME280;71676;50.998;7.098;2024-02-04T04:55:14;101777.44;;;8.74;75.33
76285;BME280;71676;50.998;7.098;2024-02-04T04:57:41;101771.69;;;8.83;75.13
76285;BME280;71676;50.998;7.098;2024-02-04T05:00:10;101776.59;;;8.75;75.22
76285;BME280;71676;50.998;7.098;2024-02-04T05:02:39;101775.50;;;8.67;75.98
76285;BME280;71676;50.998;7.098;2024-02-04T05:05:08;101753.19;;;8.66;75.49
76285;BME280;71676;50.998;7.098;2024-02-04T05:07:34;101763.81;;;8.78;75.49
76285;BME280;71676;50.998;7.098;2024-02-04T05:10:01;101763.78;;;8.77;75.43
76285;BME280;71676;50.998;7.098;2024-02-04T05:12:28;101751.97;;;8.83;75.10
76285;BME280;71676;50.998;7.098;2024-02-04T05:14:54;101753.97;;;8.92;74.51
76285;BME280;71676;50.998;7.098;2024-02-04T05:17:22;101748.56;;;8.84;75.03
76285;BME280;71676;50.998;7.098;2024-02-04T05:19:49;101764.25;;;8.92;74.73
76285;BME280;71676;50.998;7.098;2024-02-04T05:22:15;101762.44;;;8.89;74.63
76285;BME280;71676;50.998;7.098;2024-02-04T05:24:42;101751.44;;;8.93;74.29
76285;BME280;71676;50.998;7.098;2024-02-04T05:27:09;101747.97;;;8.93;74.26
76285;BME280;71676;50.998;7.098;2024-02-04T05:29:35;101744.53;;;8.92;74.19
76285;BME280;71676;50.998;7.098;2024-02-04T05:32:02;101763.31;;;8.90;74.31
76285;BME280;71676;50.998;7.098;2024-02-04T05:34:30;101746.41;;;8.98;73.83
76285;BME280;71676;50.998;7.098;2024-02-04T05:36:59;101752.19;;;8.91;74.45
76285;BME280;71676;50.998;7.098;2024-02-04T05:39:26;101746.13;;;8.89;74.69
76285;BME280;71676;50.998;7.098;2024-02-04T05:41:52;101748.88;;;8.93;74.17
76285;BME280;71676;50.998;7.098;2024-02-04T05:44:19;101752.16;;;8.89;74.07
76285;BME280;71676;50.998;7.098;2024-02-04T05:46:45;101747.97;;;8.93;73.61
76285;BME280;71676;50.998;7.098;2024-02-04T05:49:12;101753.75;;;8.86;74.74
76285;BME280;71676;50.998;7.098;2024-02-04T05:51:41;101749.63;;;8.91;73.64
76285;BME280;71676;50.998;7.098;2024-02-04T05:54:08;101748.94;;;8.96;73.60
76285;BME280;71676;50.998;7.098;2024-02-04T05:56:35;101694.06;;;8.66;74.09
76285;BME280;71676;50.998;7.098;2024-02-04T05:59:01;101740.13;;;8.88;74.60
76285;BME280;71676;50.998;7.098;2024-02-04T06:01:28;101739.25;;;8.88;74.29
76285;BME280;71676;50.998;7.098;2024-02-04T06:03:55;101730.91;;;8.95;74.10
76285;BME280;71676;50.998;7.098;2024-02-04T06:06:21;101730.84;;;8.93;74.46
76285;BME280;71676;50.998;7.098;2024-02-04T06:08:49;101728.00;;;8.84;74.66
76285;BME280;71676;50.998;7.098;2024-02-04T06:11:16;101718.56;;;8.83;74.22
76285;BME280;71676;50.998;7.098;2024-02-04T06:13:44;101720.16;;;8.80;74.61
76285;BME280;71676;50.998;7.098;2024-02-04T06:16:11;101719.09;;;8.73;75.21
76285;BME280;71676;50.998;7.098;2024-02-04T06:18:38;101709.28;;;8.88;74.56
76285;BME280;71676;50.998;7.098;2024-02-04T06:21:05;101701.47;;;8.85;74.55
76285;BME280;71676;50.998;7.098;2024-02-04T06:23:32;101650.13;;;8.60;74.76
76285;BME280;71676;50.998;7.098;2024-02-04T06:26:00;101711.09;;;8.92;74.94
76285;BME280;71676;50.998;7.098;2024-02-04T06:28:27;101707.75;;;8.95;74.27
76285;BME280;71676;50.998;7.098;2024-02-04T06:30:54;101712.69;;;8.89;74.68
76285;BME280;71676;50.998;7.098;2024-02-04T06:33:20;101719.72;;;8.94;74.45
76285;BME280;71676;50.998;7.098;2024-02-04T06:35:48;101715.69;;;9.02;73.75
76285;BME280;71676;50.998;7.098;2024-02-04T06:38:15;101716.53;;;9.01;73.33
76285;BME280;71676;50.998;7.098;2024-02-04T06:40:41;101717.28;;;8.99;74.03
76285;BME280;71676;50.998;7.098;2024-02-04T06:43:09;101704.94;;;8.87;74.90
76285;BME280;71676;50.998;7.098;2024-02-04T06:45:36;101690.22;;;8.82;73.99
76285;BME280;71676;50.998;7.098;2024-02-04T06:48:03;101705.56;;;8.79;74.58
76285;BME280;71676;50.998;7.098;2024-02-04T06:50:30;101698.03;;;8.85;74.29
76285;BME280;71676;50.998;7.098;2024-02-04T06:52:57;101689.66;;;8.92;74.12
76285;BME280;71676;50.998;7.098;2024-02-04T06:55:23;101691.41;;;8.65;74.67
76285;BME280;71676;50.998;7.098;2024-02-04T06:57:50;101703.91;;;8.53;76.01
76285;BME280;71676;50.998;7.098;2024-02-04T07:00:18;101701.59;;;8.62;75.48
76285;BME280;71676;50.998;7.098;2024-02-04T07:02:46;101703.78;;;8.78;74.57
76285;BME280;71676;50.998;7.098;2024-02-04T07:05:13;101705.28;;;8.70;74.86
76285;BME280;71676;50.998;7.098;2024-02-04T07:07:41;101705.94;;;8.63;75.50
76285;BME280;71676;50.998;7.098;2024-02-04T07:10:08;101706.53;;;8.82;74.64
76285;BME280;71676;50.998;7.098;2024-02-04T07:12:35;101709.78;;;8.77;74.76
76285;BME280;71676;50.998;7.098;2024-02-04T07:15:01;101674.31;;;8.67;74.30
76285;BME280;71676;50.998;7.098;2024-02-04T07:17:29;101687.81;;;8.88;74.57
76285;BME280;71676;50.998;7.098;2024-02-04T07:19:56;101675.06;;;8.92;73.88
76285;BME280;71676;50.998;7.098;2024-02-04T07:22:23;101676.31;;;8.75;75.24
76285;BME280;71676;50.998;7.098;2024-02-04T07:24:50;101680.69;;;8.79;75.15
76285;BME280;71676;50.998;7.098;2024-02-04T07:27:16;101678.41;;;8.88;74.59
76285;BME280;71676;50.998;7.098;2024-02-04T07:29:43;101659.78;;;8.67;75.15
76285;BME280;71676;50.998;7.098;2024-02-04T07:32:09;101678.72;;;8.69;75.38
76285;BME280;71676;50.998;7.098;2024-02-04T07:34:37;101665.69;;;8.65;75.04
76285;BME280;71676;50.998;7.098;2024-02-04T07:37:04;101689.78;;;8.68;75.64
76285;BME280;71676;50.998;7.098;2024-02-04T07:39:31;101690.13;;;8.79;75.11
76285;BME280;71676;50.998;7.098;2024-02-04T07:41:57;101690.00;;;8.74;74.84
76285;BME280;71676;50.998;7.098;2024-02-04T07:44:26;101697.06;;;8.81;75.20
76285;BME280;71676;50.998;7.098;2024-02-04T07:46:56;101692.63;;;8.76;75.23
76285;BME280;71676;50.998;7.098;2024-02-04T07:49:22;101688.53;;;8.82;74.98
76285;BME280;71676;50.998;7.098;2024-02-04T07:51:50;101689.25;;;8.78;75.31
76285;BME280;71676;50.998;7.098;2024-02-04T07:54:17;101682.94;;;8.67;75.13
76285;BME280;71676;50.998;7.098;2024-02-04T07:56:44;101703.84;;;8.79;74.86
76285;BME280;71676;50.998;7.098;2024-02-04T07:59:10;101706.28;;;8.75;74.81
76285;BME280;71676;50.998;7.098;2024-02-04T08:01:37;101705.94;;;8.63;75.55
76285;BME280;71676;50.998;7.098;2024-02-04T08:04:04;101703.50;;;8.67;75.48
76285;BME280;71676;50.998;7.098;2024-02-04T08:06:31;101700.09;;;8.68;75.44
76285;BME280;71676;50.998;7.098;2024-02-04T08:09:01;101694.53;;;8.83;74.86
76285;BME280;71676;50.998;7.098;2024-02-04T08:11:27;101691.78;;;8.77;75.17
76285;BME280;71676;50.998;7.098;2024-02-04T08:13:54;101682.28;;;8.74;74.77
76285;BME280;71676;50.998;7.098;2024-02-04T08:16:20;101680.41;;;8.69;75.64
76285;BME280;71676;50.998;7.098;2024-02-04T08:18:47;101700.88;;;8.66;75.48
76285;BME280;71676;50.998;7.098;2024-02-04T08:21:14;101689.06;;;8.72;75.68
76285;BME280;71676;50.998;7.098;2024-02-04T08:23:40;101690.16;;;8.80;74.88
76285;BME280;71676;50.998;7.098;2024-02-04T08:26:08;101688.53;;;8.82;75.18
76285;BME280;71676;50.998;7.098;2024-02-04T08:28:35;101691.19;;;8.85;74.85
76285;BME280;71676;50.998;7.098;2024-02-04T08:31:02;101696.31;;;8.85;74.77
76285;BME280;71676;50.998;7.098;2024-02-04T08:33:28;101688.41;;;8.79;74.97
76285;BME280;71676;50.998;7.098;2024-02-04T08:35:55;101701.44;;;8.84;75.12
76285;BME280;71676;50.998;7.098;2024-02-04T08:38:21;101700.72;;;8.60;76.02
76285;BME280;71676;50.998;7.098;2024-02-04T08:40:48;101711.38;;;8.73;75.58
76285;BME280;71676;50.998;7.098;2024-02-04T08:43:16;101713.38;;;8.82;75.31
76285;BME280;71676;50.998;7.098;2024-02-04T08:45:43;101717.03;;;8.90;75.25
76285;BME280;71676;50.998;7.098;2024-02-04T08:48:09;101702.56;;;8.93;75.48
76285;BME280;71676;50.998;7.098;2024-02-04T08:50:36;101693.97;;;8.93;75.54
76285;BME280;71676;50.998;7.098;2024-02-04T08:53:03;101695.94;;;9.01;75.28
76285;BME280;71676;50.998;7.098;2024-02-04T08:55:30;101693.44;;;9.04;74.56
76285;BME280;71676;50.998;7.098;2024-02-04T08:57:56;101707.28;;;9.08;74.61
76285;BME280;71676;50.998;7.098;2024-02-04T09:00:24;101685.69;;;9.03;74.67
76285;BME280;71676;50.998;7.098;2024-02-04T09:02:51;101702.25;;;9.11;74.13
76285;BME280;71676;50.998;7.098;2024-02-04T09:05:18;101686.88;;;9.14;74.06
76285;BME280;71676;50.998;7.098;2024-02-04T09:07:45;101691.69;;;9.03;74.54
76285;BME280;71676;50.998;7.098;2024-02-04T09:10:12;101701.25;;;9.07;74.72
76285;BME280;71676;50.998;7.098;2024-02-04T09:12:39;101687.72;;;9.14;74.45
76285;BME280;71676;50.998;7.098;2024-02-04T09:15:06;101693.66;;;9.10;74.58
76285;BME280;71676;50.998;7.098;2024-02-04T09:17:33;101698.91;;;9.15;74.46
76285;BME280;71676;50.998;7.098;2024-02-04T09:20:00;101687.84;;;9.17;74.07
76285;BME280;71676;50.998;7.098;2024-02-04T09:22:27;101700.84;;;9.22;74.08
76285;BME280;71676;50.998;7.098;2024-02-04T09:24:54;101698.25;;;9.22;73.93
76285;BME280;71676;50.998;7.098;2024-02-04T09:27:21;101704.94;;;9.15;74.49
76285;BME280;71676;50.998;7.098;2024-02-04T09:29:47;101691.16;;;9.13;74.07
76285;BME280;71676;50.998;7.098;2024-02-04T09:32:14;101703.13;;;9.13;74.69
76285;BME280;71676;50.998;7.098;2024-02-04T09:34:42;101703.81;;;9.07;74.82
76285;BME280;71676;50.998;7.098;2024-02-04T09:37:09;101715.09;;;9.11;74.73
76285;BME280;71676;50.998;7.098;2024-02-04T09:39:35;101710.66;;;9.07;74.33
76285;BME280;71676;50.998;7.098;2024-02-04T09:42:03;101716.00;;;9.13;74.04
76285;BME280;71676;50.998;7.098;2024-02-04T09:44:29;101722.81;;;9.11;74.12
76285;BME280;71676;50.998;7.098;2024-02-04T09:46:57;101710.00;;;9.12;74.17
76285;BME280;71676;50.998;7.098;2024-02-04T09:49:26;101713.47;;;9.14;74.23
76285;BME280;71676;50.998;7.098;2024-02-04T09:51:56;101712.56;;;9.12;74.19
76285;BME280;71676;50.998;7.098;2024-02-04T09:54:24;101719.41;;;9.12;74.14
76285;BME280;71676;50.998;7.098;2024-02-04T09:56:51;101710.63;;;9.05;74.62
76285;BME280;71676;50.998;7.098;2024-02-04T09:59:18;101714.28;;;9.12;74.30
76285;BME280;71676;50.998;7.098;2024-02-04T10:01:45;101715.81;;;9.07;74.64
76285;BME280;71676;50.998;7.098;2024-02-04T10:04:12;101709.09;;;9.10;75.14
76285;BME280;71676;50.998;7.098;2024-02-04T10:06:39;101705.44;;;9.04;75.45
76285;BME280;71676;50.998;7.098;2024-02-04T10:09:07;101699.56;;;9.08;75.07
76285;BME280;71676;50.998;7.098;2024-02-04T10:11:33;101704.38;;;9.26;73.75
76285;BME280;71676;50.998;7.098;2024-02-04T10:14:00;101702.69;;;9.28;73.65
76285;BME280;71676;50.998;7.098;2024-02-04T10:16:27;101697.31;;;9.18;73.97
76285;BME280;71676;50.998;7.098;2024-02-04T10:18:55;101698.50;;;9.31;73.27
76285;BME280;71676;50.998;7.098;2024-02-04T10:21:22;101698.50;;;9.31;73.75
76285;BME280;71676;50.998;7.098;2024-02-04T10:23:50;101680.66;;;9.07;74.21
76285;BME280;71676;50.998;7.098;2024-02-04T10:26:18;101694.22;;;9.32;74.02
76285;BME280;71676;50.998;7.098;2024-02-04T10:28:46;101697.94;;;9.41;73.71
76285;BME280;71676;50.998;7.098;2024-02-04T10:31:13;101700.56;;;9.44;72.99
76285;BME280;71676;50.998;7.098;2024-02-04T10:33:40;101704.03;;;9.45;72.72
76285;BME280;71676;50.998;7.098;2024-02-04T10:36:07;101700.31;;;9.34;73.14
76285;BME280;71676;50.998;7.098;2024-02-04T10:38:34;101705.59;;;9.40;73.24
76285;BME280;71676;50.998;7.098;2024-02-04T10:41:01;101706.66;;;9.46;72.98
76285;BME280;71676;50.998;7.098;2024-02-04T10:43:31;101700.50;;;9.41;72.99
76285;BME280;71676;50.998;7.098;2024-02-04T10:46:09;101698.81;;;9.42;72.66
76285;BME280;71676;50.998;7.098;2024-02-04T10:48:37;101697.50;;;9.26;73.57
76285;BME280;71676;50.998;7.098;2024-02-04T10:51:12;101698.81;;;9.42;72.62
76285;BME280;71676;50.998;7.098;2024-02-04T10:53:41;101688.44;;;9.40;72.28
76285;BME280;71676;50.998;7.098;2024-02-04T10:56:13;101699.38;;;9.32;73.06
76285;BME280;71676;50.998;7.098;2024-02-04T10:58:42;101693.53;;;9.39;72.34
76285;BME280;71676;50.998;7.098;2024-02-04T11:01:10;101697.16;;;9.45;72.10
76285;BME280;71676;50.998;7.098;2024-02-04T11:03:39;101695.09;;;9.32;72.23
76285;BME280;71676;50.998;7.098;2024-02-04T11:06:07;101676.59;;;9.47;71.67
76285;BME280;71676;50.998;7.098;2024-02-04T11:08:34;101683.25;;;9.39;72.06
76285;BME280;71676;50.998;7.098;2024-02-04T11:11:01;101693.72;;;9.45;72.70
76285;BME280;71676;50.998;7.098;2024-02-04T11:13:28;101685.31;;;9.52;72.11
76285;BME280;71676;50.998;7.098;2024-02-04T11:15:58;101676.81;;;9.54;71.86
76285;BME280;71676;50.998;7.098;2024-02-04T11:18:42;101676.94;;;9.59;71.73
76285;BME280;71676;50.998;7.098;2024-02-04T11:24:52;101680.06;;;9.47;72.08
76285;BME280;71676;50.998;7.098;2024-02-04T11:27:22;101681.38;;;9.32;72.38
76285;BME280;71676;50.998;7.098;2024-02-04T11:29:49;101678.09;;;9.39;72.89
76285;BME280;71676;50.998;7.098;2024-02-04T11:32:17;101676.13;;;9.29;73.46
76285;BME280;71676;50.998;7.098;2024-02-04T11:34:44;101647.91;;;9.32;72.22
76285;BME280;71676;50.998;7.098;2024-02-04T11:37:15;101667.91;;;9.42;72.75
76285;BME280;71676;50.998;7.098;2024-02-04T11:39:48;101664.28;;;9.34;73.76
76285;BME280;71676;50.998;7.098;2024-02-04T11:42:16;101658.13;;;9.29;72.93
76285;BME280;71676;50.998;7.098;2024-02-04T11:44:43;101651.59;;;9.41;72.78
76285;BME280;71676;50.998;7.098;2024-02-04T11:47:10;101650.97;;;9.18;73.51
76285;BME280;71676;50.998;7.098;2024-02-04T11:49:38;101647.13;;;9.36;72.89
76285;BME280;71676;50.998;7.098;2024-02-04T11:52:05;101648.09;;;9.39;72.38
76285;BME280;71676;50.998;7.098;2024-02-04T11:54:32;101643.78;;;9.38;72.72
76285;BME280;71676;50.998;7.098;2024-02-04T11:56:59;101653.84;;;9.31;73.29
76285;BME280;71676;50.998;7.098;2024-02-04T11:59:26;101638.69;;;9.40;72.92
76285;BME280;71676;50.998;7.098;2024-02-04T12:01:54;101641.38;;;9.44;72.37
76285;BME280;71676;50.998;7.098;2024-02-04T12:04:21;101638.69;;;9.10;74.33
76285;BME280;71676;50.998;7.098;2024-02-04T12:06:50;101618.72;;;9.31;73.17
76285;BME280;71676;50.998;7.098;2024-02-04T12:09:26;101624.34;;;9.49;72.70
76285;BME280;71676;50.998;7.098;2024-02-04T12:11:53;101627.81;;;9.51;72.68
76285;BME280;71676;50.998;7.098;2024-02-04T12:14:21;101624.38;;;9.51;72.59
76285;BME280;71676;50.998;7.098;2024-02-04T12:16:47;101634.50;;;9.43;72.13
76285;BME280;71676;50.998;7.098;2024-02-04T12:19:14;101625.00;;;9.42;72.41
76285;BME280;71676;50.998;7.098;2024-02-04T12:21:41;101609.22;;;9.29;72.42
76285;BME280;71676;50.998;7.098;2024-02-04T12:24:09;101615.28;;;9.32;73.34
76285;BME280;71676;50.998;7.098;2024-02-04T12:26:36;101611.22;;;9.40;73.13
76285;BME280;71676;50.998;7.098;2024-02-04T12:29:03;101610.44;;;9.43;72.97
76285;BME280;71676;50.998;7.098;2024-02-04T12:31:30;101630.47;;;9.54;71.93
76285;BME280;71676;50.998;7.098;2024-02-04T12:34:00;101619.22;;;9.51;72.33
76285;BME280;71676;50.998;7.098;2024-02-04T12:36:28;101610.47;;;9.44;72.43
76285;BME280;71676;50.998;7.098;2024-02-04T12:38:55;101588.72;;;9.32;72.52
76285;BME280;71676;50.998;7.098;2024-02-04T12:41:25;101613.56;;;9.31;72.92
76285;BME280;71676;50.998;7.098;2024-02-04T12:43:53;101606.56;;;9.26;73.42
76285;BME280;71676;50.998;7.098;2024-02-04T12:46:20;101616.25;;;9.36;73.72
76285;BME280;71676;50.998;7.098;2024-02-04T12:48:51;101601.50;;;9.29;74.03
76285;BME280;71676;50.998;7.098;2024-02-04T12:51:29;101602.75;;;9.11;74.85
76285;BME280;71676;50.998;7.098;2024-02-04T12:54:04;101605.84;;;9.31;73.90
76285;BME280;71676;50.998;7.098;2024-02-04T12:56:41;101594.78;;;9.34;73.58
76285;BME280;71676;50.998;7.098;2024-02-04T12:59:08;101599.16;;;9.38;73.50
76285;BME280;71676;50.998;7.098;2024-02-04T13:01:35;101593.13;;;9.37;72.98
76285;BME280;71676;50.998;7.098;2024-02-04T13:04:01;101604.22;;;9.35;73.48